createdAt,value
2018-11-27T00:01:22.502Z,6.57
2018-11-27T00:03:54.885Z,5.90
2018-11-27T00:06:22.763Z,5.83
2018-11-27T00:08:50.216Z,5.43
2018-11-27T00:11:17.913Z,5.67
2018-11-27T00:13:45.459Z,5.20
2018-11-27T00:16:12.893Z,5.40
2018-11-27T00:18:40.878Z,6.92
2018-11-27T00:21:08.257Z,6.03
2018-11-27T00:23:35.625Z,5.33
2018-11-27T00:26:03.032Z,7.10
2018-11-27T00:28:30.399Z,6.47
2018-11-27T00:30:57.869Z,6.17
2018-11-27T00:33:25.215Z,5.50
2018-11-27T00:35:52.785Z,5.90
2018-11-27T00:38:20.297Z,6.57
2018-11-27T00:40:48.024Z,6.30
2018-11-27T00:43:15.561Z,6.10
2018-11-27T00:45:43.188Z,6.47
2018-11-27T00:48:10.538Z,5.70
2018-11-27T00:50:37.896Z,6.77
2018-11-27T00:53:05.520Z,6.20
2018-11-27T00:55:32.880Z,6.97
2018-11-27T00:58:00.279Z,7.13
2018-11-27T01:00:27.819Z,5.53
2018-11-27T01:02:55.185Z,5.57
2018-11-27T01:05:23.530Z,5.77
2018-11-27T01:07:50.991Z,6.70
2018-11-27T01:10:20.200Z,5.30
2018-11-27T01:12:47.943Z,6.50
2018-11-27T01:15:15.785Z,5.70
2018-11-27T01:17:44.890Z,5.53
2018-11-27T01:20:12.820Z,5.63
2018-11-27T01:22:40.222Z,5.40
2018-11-27T01:25:07.958Z,6.33
2018-11-27T01:27:35.328Z,5.10
2018-11-27T01:30:02.722Z,5.87
2018-11-27T01:32:30.081Z,6.00
2018-11-27T01:34:57.585Z,5.67
2018-11-27T01:37:25.082Z,5.93
2018-11-27T01:39:52.614Z,5.80
2018-11-27T01:42:20.256Z,5.10
2018-11-27T01:44:48.093Z,6.67
2018-11-27T01:47:15.488Z,5.80
2018-11-27T01:49:42.823Z,5.57
2018-11-27T01:52:10.213Z,5.40
2018-11-27T01:54:37.575Z,6.53
2018-11-27T01:57:05.478Z,5.63
2018-11-27T01:59:32.826Z,5.33
2018-11-27T02:02:00.225Z,5.47
2018-11-27T02:04:27.762Z,5.47
2018-11-27T02:06:55.195Z,5.27
2018-11-27T02:09:22.635Z,5.80
2018-11-27T02:11:50.468Z,5.80
2018-11-27T02:14:18.172Z,5.27
2018-11-27T02:16:45.533Z,5.60
2018-11-27T02:19:12.876Z,6.73
2018-11-27T02:21:40.254Z,6.77
2018-11-27T02:24:07.604Z,6.03
2018-11-27T02:26:34.965Z,4.80
2018-11-27T02:29:02.298Z,5.60
2018-11-27T02:31:29.858Z,5.67
2018-11-27T02:33:57.202Z,6.33
2018-11-27T02:36:24.679Z,5.40
2018-11-27T02:38:52.230Z,5.77
2018-11-27T02:41:19.745Z,5.37
2018-11-27T02:43:47.332Z,4.73
2018-11-27T02:46:14.675Z,5.07
2018-11-27T02:48:42.068Z,5.93
2018-11-27T02:51:09.423Z,5.87
2018-11-27T02:53:36.798Z,5.93
2018-11-27T02:56:04.254Z,5.17
2018-11-27T02:58:31.610Z,5.40
2018-11-27T03:00:59.109Z,6.20
2018-11-27T03:03:26.517Z,5.40
2018-11-27T03:05:53.913Z,4.83
2018-11-27T03:08:22.667Z,5.00
2018-11-27T03:10:49.269Z,6.17
2018-11-27T03:13:16.682Z,4.97
2018-11-27T03:15:44.036Z,5.93
2018-11-27T03:18:11.409Z,5.77
2018-11-27T03:20:38.758Z,4.40
2018-11-27T03:23:06.190Z,5.60
2018-11-27T03:25:34.130Z,5.70
2018-11-27T03:28:01.493Z,4.70
2018-11-27T03:30:28.937Z,5.50
2018-11-27T03:32:56.421Z,5.70
2018-11-27T03:35:24.355Z,5.30
2018-11-27T03:37:52.192Z,5.87
2018-11-27T03:40:20.503Z,5.10
2018-11-27T03:42:47.973Z,5.00
2018-11-27T03:45:15.752Z,5.87
2018-11-27T03:47:43.238Z,4.23
2018-11-27T03:50:11.276Z,5.30
2018-11-27T03:52:38.649Z,6.27
2018-11-27T03:55:06.900Z,6.33
2018-11-27T03:57:34.342Z,5.10
2018-11-27T04:00:01.746Z,4.97
2018-11-27T04:02:29.241Z,6.00
2018-11-27T04:04:56.827Z,4.93
2018-11-27T04:07:24.316Z,6.00
2018-11-27T04:09:52.103Z,4.77
2018-11-27T04:12:19.582Z,4.90
2018-11-27T04:14:46.974Z,6.40
2018-11-27T04:17:14.332Z,4.63
2018-11-27T04:19:41.716Z,5.07
2018-11-27T04:22:09.065Z,3.80
2018-11-27T04:24:36.445Z,5.53
2018-11-27T04:27:03.814Z,4.87
2018-11-27T04:29:31.322Z,5.50
2018-11-27T04:31:58.713Z,4.90
2018-11-27T04:34:26.355Z,5.33
2018-11-27T04:36:53.956Z,4.60
2018-11-27T04:39:21.747Z,4.70
2018-11-27T04:41:49.173Z,4.97
2018-11-27T04:44:16.553Z,5.33
2018-11-27T04:46:43.910Z,4.97
2018-11-27T04:49:11.280Z,4.97
2018-11-27T04:51:38.651Z,4.53
2018-11-27T04:54:06.056Z,5.10
2018-11-27T04:56:33.414Z,5.10
2018-11-27T04:59:00.933Z,5.10
2018-11-27T05:01:28.332Z,6.37
2018-11-27T05:03:55.765Z,4.30
2018-11-27T05:06:23.469Z,4.87
2018-11-27T05:08:51.288Z,4.83
2018-11-27T05:11:18.661Z,5.40
2018-11-27T05:13:46.042Z,4.70
2018-11-27T05:16:13.406Z,5.80
2018-11-27T05:18:41.023Z,4.30
2018-11-27T05:21:08.382Z,5.10
2018-11-27T05:23:35.754Z,5.20
2018-11-27T05:26:03.102Z,4.93
2018-11-27T05:28:30.630Z,5.60
2018-11-27T05:30:58.077Z,5.70
2018-11-27T05:33:25.534Z,5.83
2018-11-27T05:35:53.107Z,4.93
2018-11-27T05:38:20.589Z,6.10
2018-11-27T05:40:47.982Z,6.13
2018-11-27T05:43:16.098Z,6.10
2018-11-27T05:45:43.499Z,6.43
2018-11-27T05:48:10.855Z,7.40
2018-11-27T05:50:38.235Z,7.33
2018-11-27T05:53:05.757Z,8.37
2018-11-27T05:55:33.218Z,8.40
2018-11-27T05:58:00.671Z,9.37
2018-11-27T06:00:28.754Z,10.53
2018-11-27T06:02:57.528Z,8.40
2018-11-27T06:05:24.394Z,8.53
2018-11-27T06:07:52.312Z,8.00
2018-11-27T06:10:20.167Z,8.00
2018-11-27T06:12:47.530Z,7.90
2018-11-27T06:15:16.433Z,6.60
2018-11-27T06:17:43.897Z,6.70
2018-11-27T06:20:15.649Z,8.30
2018-11-27T06:22:42.993Z,6.00
2018-11-27T06:25:13.009Z,6.87
2018-11-27T06:27:40.351Z,7.00
2018-11-27T06:30:10.941Z,7.47
2018-11-27T06:32:38.280Z,7.43
2018-11-27T06:35:06.244Z,8.03
2018-11-27T06:37:33.603Z,6.20
2018-11-27T06:40:01.050Z,8.45
2018-11-27T06:42:28.557Z,6.90
2018-11-27T06:44:56.282Z,6.70
2018-11-27T06:47:24.207Z,6.20
2018-11-27T06:49:51.703Z,6.60
2018-11-27T06:52:19.097Z,7.90
2018-11-27T06:54:46.458Z,6.20
2018-11-27T06:57:13.872Z,8.00
2018-11-27T06:59:41.232Z,6.70
2018-11-27T07:02:08.612Z,6.70
2018-11-27T07:04:35.970Z,6.60
2018-11-27T07:07:03.604Z,6.93
2018-11-27T07:09:30.961Z,5.63
2018-11-27T07:11:58.422Z,7.20
2018-11-27T07:14:26.308Z,6.50
2018-11-27T07:16:54.321Z,6.70
2018-11-27T07:19:21.801Z,6.77
2018-11-27T07:21:49.188Z,5.80
2018-11-27T07:24:16.538Z,6.50
2018-11-27T07:26:43.906Z,6.20
2018-11-27T07:29:11.260Z,7.50
2018-11-27T07:31:38.673Z,6.33
2018-11-27T07:34:06.054Z,6.30
2018-11-27T07:36:33.681Z,6.27
2018-11-27T07:39:01.035Z,5.87
2018-11-27T07:41:28.507Z,6.40
2018-11-27T07:43:56.191Z,6.50
2018-11-27T07:46:23.870Z,5.47
2018-11-27T07:48:51.225Z,6.53
2018-11-27T07:51:18.607Z,7.13
2018-11-27T07:53:45.963Z,7.30
2018-11-27T07:56:13.346Z,6.60
2018-11-27T07:58:40.977Z,6.90
2018-11-27T08:01:08.374Z,6.67
2018-11-27T08:03:35.734Z,6.37
2018-11-27T08:06:03.246Z,6.80
2018-11-27T08:08:30.671Z,5.87
2018-11-27T08:10:58.149Z,6.20
2018-11-27T08:13:25.842Z,6.83
2018-11-27T08:15:53.499Z,6.17
2018-11-27T08:18:20.873Z,5.87
2018-11-27T08:20:48.229Z,6.87
2018-11-27T08:23:15.603Z,5.83
2018-11-27T08:25:42.949Z,5.73
2018-11-27T08:28:10.334Z,6.20
2018-11-27T08:30:37.705Z,6.63
2018-11-27T08:33:05.605Z,6.30
2018-11-27T08:35:33.069Z,5.77
2018-11-27T08:38:01.011Z,5.77
2018-11-27T08:40:30.081Z,6.10
2018-11-27T08:42:57.611Z,6.90
2018-11-27T08:45:25.329Z,6.97
2018-11-27T08:47:54.573Z,6.07
2018-11-27T08:50:22.538Z,6.07
2018-11-27T08:52:54.650Z,6.07
2018-11-27T08:55:29.294Z,5.87
2018-11-27T08:57:56.914Z,5.93
2018-11-27T09:00:25.089Z,7.13
2018-11-27T09:02:52.478Z,7.10
2018-11-27T09:05:19.865Z,6.03
2018-11-27T09:07:47.388Z,6.30
2018-11-27T09:10:15.323Z,6.50
2018-11-27T09:12:42.703Z,5.97
2018-11-27T09:15:10.918Z,5.33
2018-11-27T09:17:38.297Z,7.23
2018-11-27T09:20:07.607Z,5.70
2018-11-27T09:22:35.064Z,5.20
2018-11-27T09:25:02.430Z,6.60
2018-11-27T09:27:29.988Z,6.50
2018-11-27T09:29:57.642Z,5.70
2018-11-27T09:32:25.407Z,5.80
2018-11-27T09:34:52.827Z,7.20
2018-11-27T09:37:20.214Z,6.30
2018-11-27T09:39:47.556Z,5.60
2018-11-27T09:42:14.946Z,6.30
2018-11-27T09:44:42.308Z,6.80
2018-11-27T09:47:09.693Z,6.30
2018-11-27T09:49:37.037Z,6.27
2018-11-27T09:52:04.556Z,5.83
2018-11-27T09:54:31.966Z,6.97
2018-11-27T09:56:59.450Z,6.83
2018-11-27T09:59:26.995Z,6.67
2018-11-27T10:01:54.474Z,7.43
2018-11-27T10:04:21.822Z,6.77
2018-11-27T10:06:49.225Z,6.97
2018-11-27T10:09:16.577Z,6.67
2018-11-27T10:11:43.913Z,6.73
2018-11-27T10:14:11.276Z,6.77
2018-11-27T10:16:38.638Z,5.60
2018-11-27T10:19:06.222Z,5.83
2018-11-27T10:21:33.568Z,6.10
2018-11-27T10:24:00.982Z,6.90
2018-11-27T10:26:28.655Z,5.97
2018-11-27T10:28:56.739Z,6.17
2018-11-27T10:31:24.151Z,6.47
2018-11-27T10:33:51.606Z,7.07
2018-11-27T10:36:18.976Z,7.50
2018-11-27T10:38:46.355Z,6.47
2018-11-27T10:41:13.716Z,6.70
2018-11-27T10:43:41.103Z,6.50
2018-11-27T10:46:08.453Z,6.47
2018-11-27T10:48:35.980Z,5.80
2018-11-27T10:51:03.421Z,6.70
2018-11-27T10:53:30.869Z,7.13
2018-11-27T10:55:58.444Z,6.40
2018-11-27T10:58:26.179Z,6.67
2018-11-27T11:00:59.237Z,6.50
2018-11-27T11:03:35.265Z,6.73
2018-11-27T11:06:03.201Z,6.27
2018-11-27T11:08:30.751Z,6.80
2018-11-27T11:10:58.415Z,6.40
2018-11-27T11:13:26.196Z,7.37
2018-11-27T11:15:53.608Z,6.80
2018-11-27T11:18:21.010Z,5.63
2018-11-27T11:20:48.372Z,6.80
2018-11-27T11:23:15.754Z,6.50
2018-11-27T11:25:43.147Z,6.70
2018-11-27T11:28:10.816Z,7.50
2018-11-27T11:30:38.163Z,7.43
2018-11-27T11:33:06.332Z,7.10
2018-11-27T11:35:33.847Z,6.67
2018-11-27T11:38:01.348Z,7.10
2018-11-27T11:40:29.016Z,6.43
2018-11-27T11:42:57.223Z,6.03
2018-11-27T11:45:24.656Z,6.80
2018-11-27T11:47:52.101Z,6.50
2018-11-27T11:50:20.018Z,7.00
2018-11-27T11:52:48.838Z,6.10
2018-11-27T11:55:16.586Z,6.30
2018-11-27T11:57:44.114Z,6.27
2018-11-27T12:00:12.962Z,6.60
2018-11-27T12:02:40.359Z,5.20
2018-11-27T12:05:08.342Z,6.70
2018-11-27T12:07:35.702Z,6.90
2018-11-27T12:10:03.259Z,6.20
2018-11-27T12:12:30.734Z,6.23
2018-11-27T12:14:58.426Z,6.40
2018-11-27T12:17:25.838Z,7.17
2018-11-27T12:19:53.233Z,6.50
2018-11-27T12:22:20.594Z,6.50
2018-11-27T12:24:47.973Z,6.87
2018-11-27T12:27:15.345Z,6.17
2018-11-27T12:29:42.751Z,7.00
2018-11-27T12:32:10.131Z,7.03
2018-11-27T12:34:37.643Z,6.53
2018-11-27T12:37:05.242Z,6.80
2018-11-27T12:39:32.758Z,6.90
2018-11-27T12:42:00.294Z,6.40
2018-11-27T12:44:28.057Z,6.90
2018-11-27T12:46:55.454Z,5.50
2018-11-27T12:49:22.836Z,7.47
2018-11-27T12:51:50.202Z,6.50
2018-11-27T12:54:17.592Z,7.57
2018-11-27T12:56:44.939Z,7.47
2018-11-27T12:59:12.339Z,6.17
2018-11-27T13:01:39.704Z,6.53
2018-11-27T13:04:07.256Z,6.40
2018-11-27T13:06:34.726Z,6.33
2018-11-27T13:09:02.221Z,6.33
2018-11-27T13:11:29.890Z,7.27
2018-11-27T13:13:57.443Z,7.67
2018-11-27T13:16:24.829Z,6.37
2018-11-27T13:18:52.237Z,7.03
2018-11-27T13:21:19.622Z,6.90
2018-11-27T13:23:46.989Z,6.13
2018-11-27T13:26:14.386Z,6.07
2018-11-27T13:28:41.741Z,7.40
2018-11-27T13:31:09.913Z,6.90
2018-11-27T13:33:47.308Z,5.80
2018-11-27T13:36:14.729Z,6.40
2018-11-27T13:38:42.105Z,6.70
2018-11-27T13:41:09.699Z,7.20
2018-11-27T13:43:37.067Z,5.93
2018-11-27T13:46:04.772Z,7.20
2018-11-27T13:48:32.247Z,6.00
2018-11-27T13:50:59.957Z,7.07
2018-11-27T13:53:27.517Z,5.87
2018-11-27T13:55:54.910Z,6.43
2018-11-27T13:58:22.269Z,7.00
2018-11-27T14:00:49.662Z,6.43
2018-11-27T14:03:17.008Z,6.07
2018-11-27T14:05:44.404Z,6.17
2018-11-27T14:08:11.937Z,6.07
2018-11-27T14:10:39.631Z,6.17
2018-11-27T14:13:07.473Z,6.47
2018-11-27T14:15:35.077Z,6.20
2018-11-27T14:18:02.614Z,5.27
2018-11-27T14:20:30.546Z,6.60
2018-11-27T14:22:58.124Z,6.17
2018-11-27T14:25:25.576Z,7.07
2018-11-27T14:27:52.933Z,5.83
2018-11-27T14:30:22.751Z,5.80
2018-11-27T14:32:50.291Z,6.07
2018-11-27T14:35:18.146Z,7.10
2018-11-27T14:37:45.993Z,5.90
2018-11-27T14:40:13.978Z,6.43
2018-11-27T14:42:41.358Z,6.23
2018-11-27T14:45:13.207Z,6.20
2018-11-27T14:47:40.630Z,6.20
2018-11-27T14:50:08.948Z,5.63
2018-11-27T14:52:36.464Z,5.97
2018-11-27T14:55:04.397Z,6.97
2018-11-27T14:57:32.290Z,6.20
2018-11-27T14:59:59.959Z,5.93
2018-11-27T15:02:27.338Z,6.27
2018-11-27T15:04:54.698Z,6.30
2018-11-27T15:07:22.093Z,6.43
2018-11-27T15:09:49.484Z,6.90
2018-11-27T15:12:16.885Z,7.47
2018-11-27T15:14:44.237Z,7.60
2018-11-27T15:17:11.627Z,8.03
2018-11-27T15:19:39.146Z,6.23
2018-11-27T15:22:06.744Z,6.07
2018-11-27T15:24:34.234Z,6.03
2018-11-27T15:27:02.030Z,6.40
2018-11-27T15:29:29.678Z,5.80
2018-11-27T15:31:57.146Z,6.50
2018-11-27T15:34:24.520Z,6.27
2018-11-27T15:36:51.932Z,6.50
2018-11-27T15:39:19.268Z,6.40
2018-11-27T15:41:46.666Z,6.43
2018-11-27T15:44:14.020Z,6.20
2018-11-27T15:46:41.463Z,6.13
2018-11-27T15:49:08.861Z,5.70
2018-11-27T15:51:36.421Z,5.97
2018-11-27T15:54:03.883Z,5.80
2018-11-27T15:56:31.673Z,6.57
2018-11-27T15:58:59.117Z,6.50
2018-11-27T16:01:26.531Z,6.50
2018-11-27T16:03:53.894Z,6.33
2018-11-27T16:06:21.259Z,6.30
2018-11-27T16:08:48.648Z,6.63
2018-11-27T16:11:16.037Z,6.00
2018-11-27T16:13:43.420Z,6.00
2018-11-27T16:16:11.157Z,6.15
2018-11-27T16:18:38.539Z,6.10
2018-11-27T16:21:05.995Z,6.40
2018-11-27T16:23:33.608Z,5.27
2018-11-27T16:26:01.343Z,5.80
2018-11-27T16:28:28.770Z,6.70
2018-11-27T16:30:56.122Z,6.87
2018-11-27T16:33:23.502Z,6.40
2018-11-27T16:35:50.878Z,5.90
2018-11-27T16:38:18.267Z,6.43
2018-11-27T16:40:45.612Z,6.13
2018-11-27T16:43:13.014Z,6.77
2018-11-27T16:45:40.760Z,6.60
2018-11-27T16:48:08.285Z,7.95
2018-11-27T16:50:35.766Z,7.30
2018-11-27T16:53:03.405Z,5.87
2018-11-27T16:55:30.938Z,7.13
2018-11-27T16:57:58.342Z,7.37
2018-11-27T17:00:28.762Z,7.47
2018-11-27T17:02:57.585Z,7.20
2018-11-27T17:05:25.349Z,8.10
2018-11-27T17:07:52.745Z,7.70
2018-11-27T17:10:20.415Z,8.50
2018-11-27T17:12:48.219Z,8.07
2018-11-27T17:15:16.367Z,8.40
2018-11-27T17:17:43.799Z,7.40
2018-11-27T17:20:27.163Z,7.67
2018-11-27T17:22:54.940Z,8.87
2018-11-27T17:25:22.325Z,7.63
2018-11-27T17:27:49.822Z,7.33
2018-11-27T17:31:20.056Z,7.83
2018-11-27T17:33:55.153Z,7.30
2018-11-27T17:36:23.411Z,7.83
2018-11-27T17:38:50.789Z,7.77
2018-11-27T17:41:18.155Z,8.70
2018-11-27T17:43:45.533Z,7.70
2018-11-27T17:46:13.070Z,7.53
2018-11-27T17:48:40.457Z,7.47
2018-11-27T17:51:08.114Z,7.47
2018-11-27T17:53:36.565Z,7.80
2018-11-27T17:56:04.319Z,6.87
2018-11-27T17:58:32.288Z,7.60
2018-11-27T18:00:59.861Z,7.43
2018-11-27T18:03:27.977Z,8.93
2018-11-27T18:05:55.370Z,8.53
2018-11-27T18:08:22.709Z,7.97
2018-11-27T18:10:50.114Z,8.17
2018-11-27T18:13:17.482Z,7.47
2018-11-27T18:15:44.879Z,8.33
2018-11-27T18:18:12.394Z,7.40
2018-11-27T18:20:40.265Z,7.30
2018-11-27T18:23:08.264Z,8.47
2018-11-27T18:25:36.487Z,7.57
2018-11-27T18:28:05.017Z,7.70
2018-11-27T18:30:32.695Z,7.87
2018-11-27T18:33:00.135Z,8.60
2018-11-27T18:35:27.607Z,8.13
2018-11-27T18:37:55.039Z,7.73
2018-11-27T18:40:22.722Z,7.63
2018-11-27T18:42:50.153Z,8.00
2018-11-27T18:45:21.896Z,7.97
2018-11-27T18:47:49.261Z,8.57
2018-11-27T18:50:16.656Z,7.43
2018-11-27T18:52:44.187Z,8.27
2018-11-27T18:55:12.118Z,7.70
2018-11-27T18:57:40.364Z,7.63
2018-11-27T19:00:12.570Z,8.20
2018-11-27T19:02:40.095Z,8.77
2018-11-27T19:05:07.611Z,7.60
2018-11-27T19:07:35.217Z,9.57
2018-11-27T19:10:02.870Z,8.00
2018-11-27T19:12:30.310Z,8.57
2018-11-27T19:14:57.701Z,8.37
2018-11-27T19:17:25.063Z,8.90
2018-11-27T19:19:52.487Z,8.83
2018-11-27T19:22:21.165Z,9.97
2018-11-27T19:24:47.265Z,8.70
2018-11-27T19:27:14.725Z,7.77
2018-11-27T19:29:42.117Z,8.80
2018-11-27T19:32:09.673Z,8.33
2018-11-27T19:34:37.248Z,7.40
2018-11-27T19:37:05.044Z,8.73
2018-11-27T19:39:32.581Z,8.23
2018-11-27T19:42:00.024Z,7.60
2018-11-27T19:44:27.839Z,9.77
2018-11-27T19:46:55.341Z,8.10
2018-11-27T19:49:22.715Z,8.30
2018-11-27T19:51:50.120Z,9.10
2018-11-27T19:54:17.478Z,7.70
2018-11-27T19:56:45.000Z,8.60
2018-11-27T19:59:12.378Z,8.50
2018-11-27T20:01:39.930Z,8.37
2018-11-27T20:04:07.631Z,7.93
2018-11-27T20:06:35.328Z,9.00
2018-11-27T20:09:03.008Z,8.80
2018-11-27T20:11:30.464Z,9.50
2018-11-27T20:13:57.921Z,7.50
2018-11-27T20:16:25.444Z,8.20
2018-11-27T20:18:53.475Z,8.90
2018-11-27T20:21:21.399Z,8.90
2018-11-27T20:23:49.112Z,8.73
2018-11-27T20:26:16.688Z,8.00
2018-11-27T20:28:44.163Z,9.20
2018-11-27T20:31:11.633Z,8.47
2018-11-27T20:33:39.193Z,8.40
2018-11-27T20:36:06.934Z,9.50
2018-11-27T20:38:34.565Z,9.33
2018-11-27T20:41:01.948Z,7.10
2018-11-27T20:43:29.288Z,9.03
2018-11-27T20:45:56.661Z,7.20
2018-11-27T20:48:24.047Z,7.97
2018-11-27T20:50:51.911Z,8.67
2018-11-27T20:53:19.283Z,9.10
2018-11-27T20:55:46.950Z,8.10
2018-11-27T20:58:14.428Z,8.03
2018-11-27T21:00:42.431Z,7.83
2018-11-27T21:03:10.220Z,9.40
2018-11-27T21:05:38.021Z,7.90
2018-11-27T21:08:06.105Z,8.60
2018-11-27T21:10:33.524Z,9.37
2018-11-27T21:13:00.967Z,8.93
2018-11-27T21:15:28.305Z,8.50
2018-11-27T21:17:55.680Z,9.63
2018-11-27T21:20:23.097Z,10.40
2018-11-27T21:22:50.474Z,9.43
2018-11-27T21:25:19.281Z,10.77
2018-11-27T21:27:47.538Z,10.17
2018-11-27T21:30:15.671Z,10.60
2018-11-27T21:32:43.270Z,9.23
2018-11-27T21:35:11.454Z,10.20
2018-11-27T21:37:39.074Z,9.57
2018-11-27T21:40:08.447Z,9.63
2018-11-27T21:42:36.387Z,12.10
2018-11-27T21:45:04.069Z,11.17
2018-11-27T21:47:31.503Z,9.00
2018-11-27T21:49:58.877Z,9.30
2018-11-27T21:52:26.254Z,10.43
2018-11-27T21:54:53.602Z,10.57
2018-11-27T21:57:20.990Z,10.67
2018-11-27T21:59:48.330Z,9.97
2018-11-27T22:02:15.879Z,10.30
2018-11-27T22:04:43.328Z,10.60
2018-11-27T22:07:10.754Z,10.47
2018-11-27T22:09:38.354Z,9.30
2018-11-27T22:12:06.001Z,10.07
2018-11-27T22:14:33.393Z,9.80
2018-11-27T22:17:00.792Z,9.20
2018-11-27T22:19:28.142Z,9.13
2018-11-27T22:21:55.527Z,9.50
2018-11-27T22:24:22.879Z,8.63
2018-11-27T22:26:50.273Z,8.40
2018-11-27T22:29:17.703Z,9.70
2018-11-27T22:31:45.094Z,7.40
2018-11-27T22:34:12.590Z,8.40
2018-11-27T22:39:14.073Z,7.53
2018-11-27T22:41:41.632Z,8.03
2018-11-27T22:44:09.330Z,8.10
2018-11-27T22:46:37.115Z,8.20
2018-11-27T22:49:04.729Z,8.10
2018-11-27T22:51:32.462Z,8.70
2018-11-27T22:53:59.816Z,7.70
2018-11-27T22:56:27.166Z,6.47
2018-11-27T22:58:54.736Z,8.80
2018-11-27T23:01:22.103Z,8.53
2018-11-27T23:03:49.538Z,8.10
2018-11-27T23:06:17.037Z,7.27
2018-11-27T23:08:44.529Z,7.57
2018-11-27T23:11:11.935Z,6.97
2018-11-27T23:13:40.457Z,8.40
2018-11-27T23:16:08.187Z,6.80
2018-11-27T23:18:35.747Z,8.53
2018-11-27T23:21:03.111Z,8.27
2018-11-27T23:23:30.506Z,7.60
2018-11-27T23:25:57.958Z,7.70
2018-11-27T23:28:25.339Z,7.43
2018-11-27T23:30:52.704Z,7.27
2018-11-27T23:33:20.118Z,7.37
2018-11-27T23:35:47.619Z,10.13
2018-11-27T23:38:15.057Z,6.87
2018-11-27T23:40:42.556Z,6.80
2018-11-27T23:43:10.245Z,8.87
2018-11-27T23:45:38.087Z,7.67
2018-11-27T23:48:05.856Z,6.70
2018-11-27T23:50:33.274Z,8.37
2018-11-27T23:53:00.645Z,7.87
2018-11-27T23:55:28.163Z,6.40
2018-11-27T23:57:55.542Z,8.47
